createdAt,value
2023-05-10T00:01:37.870Z,3.33
2023-05-10T00:04:04.954Z,3.34
2023-05-10T00:06:32.524Z,3.22
2023-05-10T00:08:59.097Z,3.31
2023-05-10T00:11:25.769Z,3.39
2023-05-10T00:13:52.467Z,3.42
2023-05-10T00:16:19.086Z,3.49
2023-05-10T00:18:45.720Z,3.57
2023-05-10T00:21:12.260Z,3.50
2023-05-10T00:23:39.104Z,3.52
2023-05-10T00:26:05.675Z,3.46
2023-05-10T00:28:32.264Z,3.45
2023-05-10T00:30:58.805Z,3.48
2023-05-10T00:33:25.342Z,3.56
2023-05-10T00:35:52.515Z,3.56
2023-05-10T00:38:19.108Z,3.56
2023-05-10T00:40:45.652Z,3.52
2023-05-10T00:43:12.360Z,3.49
2023-05-10T00:45:40.985Z,3.54
2023-05-10T00:48:07.711Z,3.48
2023-05-10T00:50:34.917Z,3.46
2023-05-10T00:53:02.186Z,3.50
2023-05-10T00:55:28.986Z,3.51
2023-05-10T00:57:55.787Z,3.50
2023-05-10T01:00:22.595Z,3.45
2023-05-10T01:02:50.637Z,3.40
2023-05-10T01:05:17.466Z,3.41
2023-05-10T01:07:44.095Z,3.37
2023-05-10T01:10:11.568Z,3.36
2023-05-10T01:12:41.208Z,3.31
2023-05-10T01:15:09.479Z,3.29
2023-05-10T01:17:40.667Z,3.29
2023-05-10T01:20:11.590Z,3.22
2023-05-10T01:22:57.454Z,3.26
2023-05-10T01:25:33.160Z,3.25
2023-05-10T01:28:17.809Z,3.20
2023-05-10T01:30:53.308Z,3.14
2023-05-10T01:33:49.855Z,3.11
2023-05-10T01:36:27.208Z,3.01
2023-05-10T01:39:12.633Z,2.96
2023-05-10T01:42:04.599Z,2.86
2023-05-10T01:44:41.313Z,2.82
2023-05-10T01:47:18.221Z,2.78
2023-05-10T01:49:48.634Z,2.74
2023-05-10T01:52:20.277Z,2.69
2023-05-10T01:54:55.092Z,2.68
2023-05-10T01:57:26.805Z,2.70
2023-05-10T01:59:54.098Z,2.73
2023-05-10T02:02:22.310Z,2.75
2023-05-10T02:04:51.638Z,2.83
2023-05-10T02:07:19.244Z,2.85
2023-05-10T02:09:50.105Z,2.80
2023-05-10T02:12:19.000Z,2.75
2023-05-10T02:14:47.272Z,2.64
2023-05-10T02:17:15.225Z,2.58
2023-05-10T02:19:43.200Z,2.50
2023-05-10T02:22:11.326Z,2.47
2023-05-10T02:24:39.555Z,2.43
2023-05-10T02:27:07.231Z,2.48
2023-05-10T02:29:34.654Z,2.47
2023-05-10T02:32:02.613Z,2.43
2023-05-10T02:34:29.969Z,2.43
2023-05-10T02:36:57.491Z,2.41
2023-05-10T02:39:25.803Z,2.43
2023-05-10T02:41:54.558Z,2.37
2023-05-10T02:44:23.648Z,2.30
2023-05-10T02:46:50.648Z,2.38
2023-05-10T02:49:17.482Z,2.37
2023-05-10T02:51:52.483Z,2.33
2023-05-10T02:54:27.499Z,2.29
2023-05-10T02:56:58.182Z,2.27
2023-05-10T02:59:24.760Z,2.22
2023-05-10T03:01:51.383Z,2.11
2023-05-10T03:04:18.021Z,2.06
2023-05-10T03:06:45.296Z,2.08
2023-05-10T03:09:13.599Z,2.07
2023-05-10T03:12:21.496Z,2.07
2023-05-10T03:15:27.820Z,2.03
2023-05-10T03:18:10.476Z,2.05
2023-05-10T03:20:44.225Z,2.09
2023-05-10T03:23:20.568Z,2.13
2023-05-10T03:25:49.867Z,2.12
2023-05-10T03:28:17.643Z,2.09
2023-05-10T03:30:44.765Z,2.09
2023-05-10T03:33:11.785Z,2.15
2023-05-10T03:35:38.354Z,2.16
2023-05-10T03:38:04.842Z,2.16
2023-05-10T03:40:33.024Z,2.16
2023-05-10T03:43:00.435Z,2.22
2023-05-10T03:45:27.574Z,2.35
2023-05-10T03:47:55.030Z,2.34
2023-05-10T03:50:21.999Z,2.40
2023-05-10T03:52:49.319Z,2.41
2023-05-10T03:55:16.170Z,2.45
2023-05-10T03:57:43.061Z,2.56
2023-05-10T04:00:10.712Z,2.59
2023-05-10T04:02:37.828Z,2.57
2023-05-10T04:05:05.352Z,2.51
2023-05-10T04:07:31.885Z,2.48
2023-05-10T04:09:58.431Z,2.49
2023-05-10T04:12:25.281Z,2.62
2023-05-10T04:14:52.136Z,2.66
2023-05-10T04:17:18.671Z,2.75
2023-05-10T04:19:45.332Z,2.82
2023-05-10T04:22:11.841Z,2.73
2023-05-10T04:24:38.358Z,2.69
2023-05-10T04:27:04.877Z,2.71
2023-05-10T04:29:31.966Z,2.72
2023-05-10T04:31:58.771Z,2.75
2023-05-10T04:34:25.436Z,2.83
2023-05-10T04:36:51.989Z,2.93
2023-05-10T04:39:18.496Z,2.97
2023-05-10T04:41:45.016Z,3.02
2023-05-10T04:44:11.554Z,3.14
2023-05-10T04:46:38.181Z,3.38
2023-05-10T04:49:04.723Z,3.68
2023-05-10T04:51:32.307Z,3.90
2023-05-10T04:54:06.214Z,4.10
2023-05-10T04:56:33.731Z,4.24
2023-05-10T04:59:00.385Z,4.39
2023-05-10T05:01:27.094Z,4.50
2023-05-10T05:03:53.973Z,4.61
2023-05-10T05:06:22.108Z,4.74
2023-05-10T05:08:50.412Z,4.90
2023-05-10T05:11:18.109Z,5.13
2023-05-10T05:13:44.877Z,5.27
2023-05-10T05:16:12.457Z,5.50
2023-05-10T05:18:39.388Z,5.63
2023-05-10T05:21:16.854Z,5.81
2023-05-10T05:23:43.592Z,5.94
2023-05-10T05:26:10.601Z,6.02
2023-05-10T05:28:38.488Z,6.18
2023-05-10T05:31:06.604Z,6.37
2023-05-10T05:33:33.267Z,6.50
2023-05-10T05:36:02.432Z,6.50
2023-05-10T05:38:29.120Z,6.45
2023-05-10T05:40:56.053Z,6.59
2023-05-10T05:43:22.611Z,6.62
2023-05-10T05:45:49.173Z,6.79
2023-05-10T05:48:15.813Z,6.90
2023-05-10T05:50:42.393Z,6.99
2023-05-10T05:53:09.685Z,7.26
2023-05-10T05:55:36.422Z,7.43
2023-05-10T05:58:03.493Z,7.36
2023-05-10T06:00:30.044Z,7.42
2023-05-10T06:02:56.594Z,7.59
2023-05-10T06:05:23.358Z,7.82
2023-05-10T06:07:49.960Z,7.90
2023-05-10T06:10:16.537Z,7.91
2023-05-10T06:12:43.071Z,7.89
2023-05-10T06:15:10.344Z,8.04
2023-05-10T06:17:36.899Z,8.12
2023-05-10T06:20:04.039Z,8.31
2023-05-10T06:22:30.613Z,8.59
2023-05-10T06:24:57.137Z,8.87
2023-05-10T06:27:24.165Z,9.11
2023-05-10T06:29:56.401Z,9.15
2023-05-10T06:32:26.293Z,9.34
2023-05-10T06:34:53.167Z,9.57
2023-05-10T06:37:19.716Z,9.61
2023-05-10T06:39:46.331Z,9.59
2023-05-10T06:42:12.946Z,9.74
2023-05-10T06:44:39.508Z,9.87
2023-05-10T06:47:06.102Z,10.18
2023-05-10T06:49:32.649Z,10.27
2023-05-10T06:51:59.284Z,10.48
2023-05-10T06:54:25.841Z,10.63
2023-05-10T06:56:52.772Z,10.82
2023-05-10T06:59:20.470Z,10.94
2023-05-10T07:01:47.120Z,10.91
2023-05-10T07:04:14.689Z,11.05
2023-05-10T07:06:41.332Z,11.29
2023-05-10T07:09:08.685Z,11.38
2023-05-10T07:11:35.539Z,11.39
2023-05-10T07:14:02.092Z,11.46
2023-05-10T07:16:28.663Z,11.50
2023-05-10T07:18:55.412Z,11.49
2023-05-10T07:21:22.106Z,11.62
2023-05-10T07:23:48.712Z,11.69
2023-05-10T07:26:15.927Z,11.84
2023-05-10T07:28:43.094Z,12.01
2023-05-10T07:31:09.724Z,12.04
2023-05-10T07:33:36.353Z,12.16
2023-05-10T07:36:02.971Z,12.16
2023-05-10T07:38:29.660Z,12.15
2023-05-10T07:40:56.205Z,12.26
2023-05-10T07:43:22.767Z,12.31
2023-05-10T07:45:49.656Z,12.09
2023-05-10T07:48:16.495Z,12.04
2023-05-10T07:50:43.010Z,12.10
2023-05-10T07:53:09.567Z,11.89
2023-05-10T07:55:36.370Z,11.81
2023-05-10T07:58:03.007Z,12.03
2023-05-10T08:00:29.587Z,11.89
2023-05-10T08:02:56.273Z,11.85
2023-05-10T08:05:22.876Z,12.02
2023-05-10T08:07:49.438Z,12.37
2023-05-10T08:10:16.046Z,12.65
2023-05-10T08:12:42.586Z,12.52
2023-05-10T08:15:09.660Z,12.47
2023-05-10T08:17:36.264Z,12.31
2023-05-10T08:20:02.889Z,12.39
2023-05-10T08:22:29.484Z,12.55
2023-05-10T08:24:56.036Z,13.02
2023-05-10T08:27:22.851Z,13.23
2023-05-10T08:29:50.517Z,13.36
2023-05-10T08:32:17.724Z,13.67
2023-05-10T08:34:44.293Z,13.85
2023-05-10T08:37:14.071Z,13.53
2023-05-10T08:39:41.078Z,13.44
2023-05-10T08:42:09.296Z,13.00
2023-05-10T08:44:37.576Z,12.96
2023-05-10T08:47:07.942Z,13.14
2023-05-10T08:49:35.069Z,13.01
2023-05-10T08:52:05.396Z,12.82
2023-05-10T08:54:35.546Z,12.81
2023-05-10T08:57:02.436Z,12.78
2023-05-10T08:59:29.635Z,12.84
2023-05-10T09:02:01.632Z,13.15
2023-05-10T09:04:29.161Z,13.22
2023-05-10T09:06:56.029Z,13.37
2023-05-10T09:09:22.926Z,13.81
2023-05-10T09:11:49.709Z,13.97
2023-05-10T09:14:16.838Z,13.90
2023-05-10T09:16:43.753Z,13.60
2023-05-10T09:19:10.593Z,13.85
2023-05-10T09:21:39.286Z,14.36
2023-05-10T09:24:07.767Z,14.81
2023-05-10T09:26:34.592Z,15.12
2023-05-10T09:29:01.512Z,15.09
2023-05-10T09:31:49.160Z,15.04
2023-05-10T09:34:30.575Z,14.98
2023-05-10T09:37:02.020Z,15.05
2023-05-10T09:39:38.673Z,15.11
2023-05-10T09:42:11.922Z,15.28
2023-05-10T09:44:39.296Z,15.19
2023-05-10T09:47:05.870Z,15.28
2023-05-10T09:49:32.562Z,15.35
2023-05-10T09:52:07.129Z,15.50
2023-05-10T09:54:34.960Z,15.55
2023-05-10T09:57:02.122Z,15.51
2023-05-10T09:59:29.794Z,15.44
2023-05-10T10:02:01.126Z,15.42
2023-05-10T10:04:28.254Z,15.67
2023-05-10T10:07:05.429Z,15.74
2023-05-10T10:09:32.943Z,15.45
2023-05-10T10:12:00.687Z,14.93
2023-05-10T10:14:27.423Z,15.17
2023-05-10T10:17:06.808Z,15.18
2023-05-10T10:19:38.732Z,15.03
2023-05-10T10:22:06.129Z,15.14
2023-05-10T10:24:32.870Z,15.86
2023-05-10T10:27:25.837Z,14.97
2023-05-10T10:30:12.469Z,14.72
2023-05-10T10:32:49.175Z,14.70
2023-05-10T10:35:17.015Z,14.56
2023-05-10T10:37:48.331Z,14.77
2023-05-10T10:40:35.197Z,14.64
2023-05-10T10:43:28.049Z,14.70
2023-05-10T10:46:16.982Z,15.03
2023-05-10T10:49:08.861Z,15.30
2023-05-10T10:51:39.483Z,14.88
2023-05-10T10:54:12.845Z,14.85
2023-05-10T10:56:39.317Z,14.49
2023-05-10T10:59:05.853Z,14.10
2023-05-10T11:01:38.864Z,14.52
2023-05-10T11:04:05.486Z,15.12
2023-05-10T11:06:34.341Z,15.56
2023-05-10T11:09:06.802Z,16.02
2023-05-10T11:11:33.381Z,16.30
2023-05-10T11:14:05.302Z,15.87
2023-05-10T11:16:43.846Z,16.08
2023-05-10T11:19:12.933Z,15.48
2023-05-10T11:21:51.514Z,15.25
2023-05-10T11:24:21.890Z,15.67
2023-05-10T11:26:51.361Z,15.45
2023-05-10T11:29:18.028Z,15.17
2023-05-10T11:31:46.453Z,15.34
2023-05-10T11:34:15.365Z,15.99
2023-05-10T11:36:41.880Z,16.17
2023-05-10T11:39:08.625Z,16.37
2023-05-10T11:41:35.190Z,16.23
2023-05-10T11:44:02.855Z,16.15
2023-05-10T11:46:29.563Z,15.96
2023-05-10T11:49:02.688Z,15.78
2023-05-10T11:51:29.317Z,15.86
2023-05-10T11:53:57.262Z,16.13
2023-05-10T11:56:24.502Z,15.94
2023-05-10T11:58:58.424Z,15.61
2023-05-10T12:01:27.559Z,15.99
2023-05-10T12:03:59.698Z,16.49
2023-05-10T12:06:33.589Z,16.69
2023-05-10T12:09:00.707Z,16.86
2023-05-10T12:11:29.157Z,17.00
2023-05-10T12:13:57.190Z,17.01
2023-05-10T12:16:26.014Z,17.12
2023-05-10T12:18:54.292Z,16.91
2023-05-10T12:21:22.495Z,17.10
2023-05-10T12:23:54.057Z,17.04
2023-05-10T12:26:25.484Z,16.92
2023-05-10T12:28:52.059Z,17.38
2023-05-10T12:31:18.818Z,17.46
2023-05-10T12:33:47.344Z,17.14
2023-05-10T12:36:15.865Z,16.69
2023-05-10T12:38:44.558Z,17.12
2023-05-10T12:41:14.061Z,17.18
2023-05-10T12:43:41.917Z,17.29
2023-05-10T12:46:12.752Z,17.32
2023-05-10T12:48:40.987Z,17.36
2023-05-10T12:51:13.849Z,17.49
2023-05-10T12:53:43.388Z,17.37
2023-05-10T12:56:11.170Z,17.68
2023-05-10T12:58:37.689Z,17.75
2023-05-10T13:01:05.743Z,17.40
2023-05-10T13:03:32.709Z,16.72
2023-05-10T13:05:59.311Z,17.27
2023-05-10T13:08:26.002Z,17.63
2023-05-10T13:10:52.836Z,17.52
2023-05-10T13:13:19.418Z,17.22
2023-05-10T13:15:46.001Z,16.91
2023-05-10T13:18:12.640Z,16.95
2023-05-10T13:20:39.393Z,17.01
2023-05-10T13:23:06.107Z,17.15
2023-05-10T13:25:32.648Z,17.18
2023-05-10T13:27:59.181Z,16.97
2023-05-10T13:30:26.115Z,17.19
2023-05-10T13:32:52.710Z,17.10
2023-05-10T13:35:19.349Z,17.06
2023-05-10T13:37:45.853Z,17.11
2023-05-10T13:40:12.671Z,16.95
2023-05-10T13:42:39.311Z,17.01
2023-05-10T13:45:06.512Z,16.99
2023-05-10T13:47:33.116Z,16.93
2023-05-10T13:49:59.652Z,16.77
2023-05-10T13:52:27.358Z,16.44
2023-05-10T13:54:56.006Z,16.34
2023-05-10T13:57:23.122Z,16.39
2023-05-10T13:59:49.953Z,16.75
2023-05-10T14:02:16.489Z,17.03
2023-05-10T14:04:43.119Z,17.31
2023-05-10T14:07:09.679Z,17.86
2023-05-10T14:09:36.247Z,17.60
2023-05-10T14:12:03.116Z,17.12
2023-05-10T14:14:30.483Z,16.99
2023-05-10T14:16:57.007Z,17.19
2023-05-10T14:19:23.602Z,17.05
2023-05-10T14:21:50.136Z,16.77
2023-05-10T14:24:16.640Z,16.66
2023-05-10T14:26:43.160Z,16.66
2023-05-10T14:29:11.591Z,16.63
2023-05-10T14:31:39.104Z,16.87
2023-05-10T14:34:06.795Z,17.02
2023-05-10T14:36:33.496Z,16.61
2023-05-10T14:39:00.291Z,16.66
2023-05-10T14:41:26.819Z,17.22
2023-05-10T14:43:53.697Z,17.98
2023-05-10T14:46:20.824Z,18.41
2023-05-10T14:48:47.519Z,17.40
2023-05-10T14:51:14.306Z,16.71
2023-05-10T14:53:41.144Z,16.17
2023-05-10T14:56:08.100Z,15.90
2023-05-10T14:58:34.713Z,15.76
2023-05-10T15:01:01.771Z,15.53
2023-05-10T15:03:29.156Z,15.36
2023-05-10T15:05:58.562Z,15.26
2023-05-10T15:08:28.815Z,15.32
2023-05-10T15:10:56.863Z,15.16
2023-05-10T15:13:23.426Z,15.04
2023-05-10T15:15:49.971Z,15.01
2023-05-10T15:18:17.746Z,14.81
2023-05-10T15:20:44.353Z,14.71
2023-05-10T15:23:10.893Z,14.43
2023-05-10T15:25:38.495Z,14.24
2023-05-10T15:28:05.474Z,13.94
2023-05-10T15:30:32.171Z,13.76
2023-05-10T15:32:58.910Z,13.60
2023-05-10T15:35:26.986Z,13.48
2023-05-10T15:37:53.536Z,13.33
2023-05-10T15:40:20.410Z,13.27
2023-05-10T15:42:46.926Z,13.26
2023-05-10T15:45:13.971Z,13.21
2023-05-10T15:47:40.676Z,13.15
2023-05-10T15:50:08.444Z,13.08
2023-05-10T15:52:35.185Z,13.05
2023-05-10T15:55:01.722Z,13.02
2023-05-10T15:57:28.262Z,13.02
2023-05-10T15:59:54.848Z,13.02
2023-05-10T16:02:22.624Z,13.03
2023-05-10T16:04:49.410Z,13.05
2023-05-10T16:07:15.974Z,13.12
2023-05-10T16:09:42.561Z,13.16
2023-05-10T16:12:09.207Z,13.25
2023-05-10T16:14:35.826Z,13.32
2023-05-10T16:17:04.931Z,13.39
2023-05-10T16:19:31.749Z,13.46
2023-05-10T16:21:58.424Z,13.41
2023-05-10T16:24:25.902Z,13.54
2023-05-10T16:26:52.667Z,13.68
2023-05-10T16:29:19.220Z,13.76
2023-05-10T16:31:46.393Z,13.71
2023-05-10T16:34:13.160Z,13.77
2023-05-10T16:36:39.697Z,13.78
2023-05-10T16:39:06.345Z,13.85
2023-05-10T16:41:34.341Z,13.80
2023-05-10T16:44:01.449Z,13.75
2023-05-10T16:46:28.026Z,13.59
2023-05-10T16:48:54.638Z,13.43
2023-05-10T16:51:21.419Z,13.26
2023-05-10T16:53:47.965Z,13.12
2023-05-10T16:56:14.591Z,13.06
2023-05-10T16:58:41.263Z,12.92
2023-05-10T17:01:07.865Z,12.85
2023-05-10T17:03:34.582Z,12.78
2023-05-10T17:06:01.343Z,12.75
2023-05-10T17:08:27.939Z,12.71
2023-05-10T17:10:54.481Z,12.63
2023-05-10T17:13:21.018Z,12.55
2023-05-10T17:15:47.598Z,12.47
2023-05-10T17:18:14.265Z,12.39
2023-05-10T17:20:44.294Z,12.32
2023-05-10T17:23:11.489Z,12.27
2023-05-10T17:25:38.096Z,12.17
2023-05-10T17:28:04.788Z,12.14
2023-05-10T17:30:32.735Z,12.12
2023-05-10T17:33:00.226Z,12.05
2023-05-10T17:35:27.574Z,12.02
2023-05-10T17:37:54.283Z,11.95
2023-05-10T17:40:20.956Z,11.87
2023-05-10T17:42:47.582Z,11.79
2023-05-10T17:45:14.843Z,11.73
2023-05-10T17:47:41.563Z,11.69
2023-05-10T17:50:10.096Z,11.62
2023-05-10T17:52:36.657Z,11.52
2023-05-10T17:55:03.285Z,11.44
2023-05-10T17:57:29.857Z,11.38
2023-05-10T17:59:56.452Z,11.31
2023-05-10T18:02:23.071Z,11.27
2023-05-10T18:04:49.817Z,11.25
2023-05-10T18:07:16.600Z,11.24
2023-05-10T18:09:43.112Z,11.19
2023-05-10T18:12:09.652Z,11.13
2023-05-10T18:14:41.000Z,11.08
2023-05-10T18:17:09.929Z,11.03
2023-05-10T18:19:36.729Z,10.97
2023-05-10T18:22:03.325Z,10.89
2023-05-10T18:24:40.299Z,10.87
2023-05-10T18:27:08.841Z,10.81
2023-05-10T18:29:36.371Z,10.83
2023-05-10T18:32:03.175Z,10.82
2023-05-10T18:34:29.697Z,10.78
2023-05-10T18:36:56.417Z,10.73
2023-05-10T18:39:23.583Z,10.72
2023-05-10T18:41:50.267Z,10.73
2023-05-10T18:44:17.009Z,10.77
2023-05-10T18:46:43.688Z,10.71
2023-05-10T18:49:10.303Z,10.67
2023-05-10T18:51:36.864Z,10.63
2023-05-10T18:54:03.698Z,10.63
2023-05-10T18:56:30.412Z,10.59
2023-05-10T18:58:57.012Z,10.55
2023-05-10T19:01:23.582Z,10.51
2023-05-10T19:03:50.127Z,10.46
2023-05-10T19:06:16.683Z,10.43
2023-05-10T19:08:43.216Z,10.39
2023-05-10T19:11:09.789Z,10.37
2023-05-10T19:13:36.444Z,10.36
2023-05-10T19:16:05.092Z,10.36
2023-05-10T19:18:32.642Z,10.36
2023-05-10T19:21:02.121Z,10.32
2023-05-10T19:23:28.662Z,10.30
2023-05-10T19:25:55.219Z,10.27
2023-05-10T19:28:22.327Z,10.25
2023-05-10T19:30:50.313Z,10.22
2023-05-10T19:33:18.513Z,10.19
2023-05-10T19:35:45.600Z,10.15
2023-05-10T19:38:12.201Z,10.15
2023-05-10T19:40:38.772Z,10.16
2023-05-10T19:43:05.291Z,10.17
2023-05-10T19:45:33.728Z,10.18
2023-05-10T19:48:01.441Z,10.16
2023-05-10T19:50:28.109Z,10.15
2023-05-10T19:52:54.689Z,10.11
2023-05-10T19:55:31.999Z,10.10
2023-05-10T19:58:02.386Z,10.07
2023-05-10T20:00:29.279Z,10.04
2023-05-10T20:02:55.996Z,10.02
2023-05-10T20:05:22.658Z,10.01
2023-05-10T20:07:49.382Z,9.98
2023-05-10T20:10:17.470Z,9.99
2023-05-10T20:12:54.007Z,10.02
2023-05-10T20:15:22.174Z,9.98
2023-05-10T20:17:51.134Z,9.98
2023-05-10T20:20:18.121Z,9.94
2023-05-10T20:22:44.949Z,9.94
2023-05-10T20:25:11.963Z,9.92
2023-05-10T20:27:38.626Z,9.93
2023-05-10T20:30:06.192Z,9.93
2023-05-10T20:32:34.286Z,9.90
2023-05-10T20:35:01.579Z,9.87
2023-05-10T20:37:28.699Z,9.84
2023-05-10T20:39:55.450Z,9.81
2023-05-10T20:42:23.065Z,9.77
2023-05-10T20:44:50.191Z,9.72
2023-05-10T20:47:17.612Z,9.70
2023-05-10T20:49:44.244Z,9.70
2023-05-10T20:52:10.866Z,9.69
2023-05-10T20:54:37.377Z,9.63
2023-05-10T20:57:03.886Z,9.57
2023-05-10T20:59:30.496Z,9.54
2023-05-10T21:01:57.614Z,9.53
2023-05-10T21:04:25.756Z,9.52
2023-05-10T21:06:53.065Z,9.49
2023-05-10T21:09:19.708Z,9.47
2023-05-10T21:11:46.463Z,9.46
2023-05-10T21:14:13.098Z,9.45
2023-05-10T21:16:39.992Z,9.40
2023-05-10T21:19:07.620Z,9.36
2023-05-10T21:21:34.634Z,9.35
2023-05-10T21:24:01.270Z,9.34
2023-05-10T21:26:27.778Z,9.34
2023-05-10T21:28:54.464Z,9.32
2023-05-10T21:31:21.332Z,9.32
2023-05-10T21:33:48.003Z,9.33
2023-05-10T21:36:14.626Z,9.34
2023-05-10T21:38:44.173Z,9.33
2023-05-10T21:41:11.068Z,9.33
2023-05-10T21:43:37.691Z,9.33
2023-05-10T21:46:04.796Z,9.29
2023-05-10T21:48:31.435Z,9.27
2023-05-10T21:50:57.998Z,9.25
2023-05-10T21:53:24.638Z,9.20
2023-05-10T21:55:51.208Z,9.18
2023-05-10T21:58:17.910Z,9.17
2023-05-10T22:00:44.448Z,9.14
2023-05-10T22:03:11.256Z,9.09
2023-05-10T22:05:38.151Z,9.09
2023-05-10T22:08:08.269Z,9.04
2023-05-10T22:10:34.825Z,9.02
2023-05-10T22:13:01.446Z,8.98
2023-05-10T22:15:28.197Z,8.95
2023-05-10T22:17:54.931Z,8.94
2023-05-10T22:20:22.124Z,8.89
2023-05-10T22:22:48.899Z,8.85
2023-05-10T22:25:15.574Z,8.82
2023-05-10T22:27:42.142Z,8.79
2023-05-10T22:30:09.311Z,8.76
2023-05-10T22:32:35.911Z,8.74
2023-05-10T22:35:03.244Z,8.70
2023-05-10T22:37:30.037Z,8.66
2023-05-10T22:39:56.639Z,8.63
2023-05-10T22:42:23.182Z,8.61
2023-05-10T22:44:49.734Z,8.58
2023-05-10T22:47:16.648Z,8.53
2023-05-10T22:49:43.316Z,8.50
2023-05-10T22:52:10.161Z,8.49
2023-05-10T22:54:36.716Z,8.48
2023-05-10T22:57:03.402Z,8.46
2023-05-10T22:59:29.962Z,8.44
2023-05-10T23:01:56.511Z,8.39
2023-05-10T23:04:23.173Z,8.35
2023-05-10T23:06:49.805Z,8.32
2023-05-10T23:09:16.494Z,8.31
2023-05-10T23:11:43.067Z,8.31
2023-05-10T23:14:09.623Z,8.30
2023-05-10T23:16:36.702Z,8.30
2023-05-10T23:19:03.486Z,8.32
2023-05-10T23:21:32.203Z,8.32
2023-05-10T23:23:59.083Z,8.31
2023-05-10T23:26:25.746Z,8.32
2023-05-10T23:28:52.369Z,8.32
2023-05-10T23:31:19.091Z,8.27
2023-05-10T23:33:45.908Z,8.23
2023-05-10T23:36:12.491Z,8.19
2023-05-10T23:38:39.463Z,8.12
2023-05-10T23:41:06.235Z,8.05
2023-05-10T23:43:32.822Z,7.98
2023-05-10T23:45:59.588Z,7.91
2023-05-10T23:48:26.275Z,7.82
2023-05-10T23:50:53.076Z,7.73
2023-05-10T23:53:19.706Z,7.67
2023-05-10T23:55:46.455Z,7.60
2023-05-10T23:58:13.045Z,7.45
